Time;durP1;ratioP1;P1;durP2;ratioP2;P2;SDS_P1;SDS_P2;PMS_P1;PMS_P2;Temp;Humidity;BMP_temperature;BMP_pressure;BME280_temperature;BME280_humidity;BME280_pressure;Samples;Min_cycle;Max_cycle;Signal;HPM_P1;HPM_P2
2021/01/05 00:02:28;;;;;;;7.22;5.28;;;;;;;1.99;58.11;101088.88;8016231;28;20036;-64
2021/01/05 00:06:19;;;;;;;8.10;5.30;;;;;;;2.00;57.74;101087.97;8012944;28;20587;-64
2021/01/05 00:10:11;;;;;;;5.95;4.68;;;;;;;1.98;58.06;101085.41;8011367;28;20444;-62
2021/01/05 00:14:02;;;;;;;8.90;5.50;;;;;;;1.96;57.98;101089.78;8011446;28;20048;-63
2021/01/05 00:17:52;;;;;;;5.70;4.72;;;;;;;1.97;57.69;101083.72;8009343;28;20131;-63
2021/01/05 00:21:43;;;;;;;5.15;4.28;;;;;;;1.96;58.42;101088.03;8009485;28;20040;-63
2021/01/05 00:25:33;;;;;;;6.53;4.80;;;;;;;1.99;58.02;101096.63;8014114;28;20043;-64
2021/01/05 00:29:24;;;;;;;8.00;5.10;;;;;;;1.99;57.76;101086.28;8015378;28;20029;-64
2021/01/05 00:33:15;;;;;;;7.55;5.13;;;;;;;2.00;57.75;101087.97;8017476;28;20043;-64
2021/01/05 00:37:10;;;;;;;7.88;5.13;;;;;;;2.01;58.13;101090.50;8020032;28;20095;-62
2021/01/05 00:41:01;;;;;;;7.50;5.03;;;;;;;2.01;57.73;101089.66;8019476;28;20040;-62
2021/01/05 00:44:52;;;;;;;5.00;4.28;;;;;;;2.00;57.93;101096.56;8019424;28;20040;-62
2021/01/05 00:48:43;;;;;;;5.75;4.35;;;;;;;2.02;57.81;101099.13;8020699;28;20044;-62
2021/01/05 00:52:33;;;;;;;5.10;4.45;;;;;;;2.02;57.87;101089.63;8022374;28;20055;-63
2021/01/05 00:56:25;;;;;;;5.82;4.70;;;;;;;2.03;58.34;101085.28;8019152;28;20040;-62
2021/01/05 01:00:21;;;;;;;6.80;4.53;;;;;;;2.04;58.48;101090.41;8020460;28;20446;-63
2021/01/05 01:04:13;;;;;;;6.33;4.53;;;;;;;2.05;57.79;101091.28;8019331;28;20055;-62
2021/01/05 01:08:04;;;;;;;7.95;5.22;;;;;;;2.05;57.71;101092.13;8019240;28;20107;-62
2021/01/05 01:12:18;;;;;;;6.07;4.43;;;;;;;2.05;57.94;101096.44;8018062;28;20036;-61
2021/01/05 01:16:13;;;;;;;6.18;4.68;;;;;;;2.03;57.93;101096.50;8018132;28;20568;-62
2021/01/05 01:20:06;;;;;;;6.70;5.18;;;;;;;2.02;57.86;101094.81;8007931;28;20068;-62
2021/01/05 01:23:58;;;;;;;6.38;4.82;;;;;;;2.03;58.35;101099.09;8007390;28;20063;-61
2021/01/05 01:27:49;;;;;;;6.00;4.47;;;;;;;2.03;57.95;101103.44;8009642;28;20161;-61
2021/01/05 01:31:51;;;;;;;7.40;5.40;;;;;;;2.04;57.84;101099.97;8006643;28;20044;-62
2021/01/05 01:35:42;;;;;;;7.07;5.03;;;;;;;2.04;58.39;101099.97;8012549;28;20032;-62
2021/01/05 01:39:37;;;;;;;6.53;4.45;;;;;;;2.02;58.10;101099.13;8001765;28;20064;-62
2021/01/05 01:43:28;;;;;;;7.35;5.10;;;;;;;2.03;58.02;101106.03;8010164;28;20524;-62
2021/01/05 01:47:27;;;;;;;7.60;5.20;;;;;;;2.04;58.06;101097.38;8007622;28;20938;-62
2021/01/05 01:51:21;;;;;;;;;;;;;;;1.96;58.23;101100.13;8016803;28;20519;-62
2021/01/05 01:55:46;;;;;;;7.45;5.07;;;;;;;1.97;57.96;101102.69;8008382;28;19916;-62
2021/01/05 02:00:03;;;;;;;9.90;5.80;;;;;;;1.93;58.20;101098.50;8009614;28;20429;-62
2021/01/05 02:04:26;;;;;;;;;;;;;;;1.87;58.34;101096.06;8050283;28;21615;-62
2021/01/05 02:08:35;;;;;;;6.97;4.75;;;;;;;1.86;57.87;101090.94;8048810;28;19997;-62
2021/01/05 02:12:38;;;;;;;6.97;4.95;;;;;;;1.90;58.53;101100.31;8059458;28;20048;-62
2021/01/05 02:16:37;;;;;;;8.95;5.38;;;;;;;1.90;58.39;101089.97;8062986;28;20041;-63
2021/01/05 02:20:47;;;;;;;8.07;5.65;;;;;;;1.91;57.91;101097.69;8052754;28;20595;-63
2021/01/05 02:24:58;;;;;;;6.90;5.25;;;;;;;1.91;58.26;101096.84;8046120;28;20038;-63
2021/01/05 02:28:57;;;;;;;7.47;5.28;;;;;;;1.90;58.24;101089.97;8045082;28;20044;-63
2021/01/05 02:33:06;;;;;;;;;;;;;;;1.85;57.92;101091.81;8052197;28;20559;-63
2021/01/05 02:37:25;;;;;;;8.93;5.30;;;;;;;1.86;58.59;101091.78;8061218;28;19928;-62
2021/01/05 02:41:40;;;;;;;7.90;5.35;;;;;;;1.88;58.46;101092.56;8044446;28;20130;-62
2021/01/05 02:46:09;;;;;;;8.77;4.93;;;;;;;1.90;57.90;101088.22;8040950;28;20040;-62
2021/01/05 02:51:03;;;;;;;8.32;5.00;;;;;;;1.92;58.12;101088.16;8051590;28;20036;-62
2021/01/05 02:55:50;;;;;;;13.07;6.00;;;;;;;1.94;58.36;101087.25;8042497;28;20048;-63
2021/01/05 03:00:42;;;;;;;8.07;5.13;;;;;;;1.94;58.23;101082.06;8048225;28;20040;-62
2021/01/05 03:04:51;;;;;;;8.70;5.55;;;;;;;1.92;58.34;101088.16;8041112;28;20796;-62
2021/01/05 03:09:20;;;;;;;7.40;5.30;;;;;;;1.92;58.59;101081.25;8041594;28;20546;-62
2021/01/05 03:13:38;;;;;;;8.43;5.28;;;;;;;1.92;58.45;101083.81;8042857;28;20037;-62
2021/01/05 03:17:53;;;;;;;7.25;5.20;;;;;;;1.94;58.34;101083.81;8041487;28;20052;-63
2021/01/05 03:22:09;;;;;;;8.55;5.50;;;;;;;1.93;57.98;101090.72;8047060;28;20281;-63
2021/01/05 03:26:23;;;;;;;10.85;5.78;;;;;;;1.95;58.25;101077.75;8043555;28;20048;-63
2021/01/05 03:30:35;;;;;;;7.72;5.30;;;;;;;1.93;58.28;101085.53;8038858;28;20039;-62
2021/01/05 03:34:44;;;;;;;8.00;5.60;;;;;;;1.94;58.06;101086.41;8044708;28;20115;-63
2021/01/05 03:38:54;;;;;;;9.27;5.25;;;;;;;1.91;57.84;101079.56;8045809;28;20040;-62
2021/01/05 03:43:03;;;;;;;7.47;5.20;;;;;;;1.92;58.42;101078.66;8044074;28;20059;-63
2021/01/05 03:47:13;;;;;;;8.77;5.97;;;;;;;1.84;58.36;101075.41;8044387;28;20713;-63
2021/01/05 03:51:22;;;;;;;8.80;6.05;;;;;;;1.91;58.03;101087.34;8044158;28;20040;-62
2021/01/05 03:55:31;;;;;;;8.73;5.95;;;;;;;1.90;58.28;101085.63;8042504;28;20044;-62
2021/01/05 03:59:40;;;;;;;7.88;4.93;;;;;;;1.89;58.03;101083.06;8041283;28;20115;-62
2021/01/05 04:03:50;;;;;;;7.63;5.30;;;;;;;1.84;58.70;101071.97;8037985;28;20047;-62
2021/01/05 04:07:41;;;;;;;7.15;4.88;;;;;;;1.91;58.57;101074.38;8044587;28;20553;-63
2021/01/05 04:11:31;;;;;;;8.82;5.65;;;;;;;1.92;57.74;101082.97;8040166;28;20045;-62
2021/01/05 04:15:25;;;;;;;8.07;5.22;;;;;;;1.92;58.00;101077.78;8043922;28;20044;-62
2021/01/05 04:19:16;;;;;;;7.72;5.38;;;;;;;1.90;58.19;101077.84;8045255;28;20045;-61
2021/01/05 04:23:06;;;;;;;7.85;5.53;;;;;;;1.91;57.76;101079.56;8041899;28;20042;-62
2021/01/05 04:26:57;;;;;;;8.57;5.88;;;;;;;1.90;57.98;101079.59;8039737;28;20036;-62
2021/01/05 04:30:48;;;;;;;6.43;4.82;;;;;;;1.88;57.91;101082.22;8041478;28;20040;-63
2021/01/05 04:34:38;;;;;;;7.50;5.18;;;;;;;1.88;58.34;101086.53;8041586;28;20038;-61
2021/01/05 04:38:29;;;;;;;7.80;5.05;;;;;;;1.88;58.57;101089.97;8041866;28;20028;-63
2021/01/05 04:42:27;;;;;;;6.40;4.57;;;;;;;1.90;57.91;101096.00;8044542;28;20043;-62
2021/01/05 04:46:17;;;;;;;7.88;5.18;;;;;;;1.92;58.08;101090.75;8041764;28;20050;-63
2021/01/05 04:50:12;;;;;;;8.45;5.10;;;;;;;1.95;58.44;101098.47;8041618;28;20235;-61
2021/01/05 04:54:07;;;;;;;7.53;4.93;;;;;;;1.95;58.55;101094.13;8043921;28;20040;-62
2021/01/05 04:58:24;;;;;;;7.55;5.38;;;;;;;1.96;58.07;101095.81;8039695;28;20477;-63
2021/01/05 05:02:31;;;;;;;8.60;5.57;;;;;;;1.99;57.90;101104.41;8038445;28;20113;-62
2021/01/05 05:06:46;;;;;;;7.93;5.47;;;;;;;1.96;58.50;101097.53;8042460;28;20071;-63
2021/01/05 05:10:45;;;;;;;7.60;5.10;;;;;;;1.95;58.24;101101.06;8043008;28;20028;-61
2021/01/05 05:14:58;;;;;;;8.95;5.60;;;;;;;1.97;57.82;101104.44;8068268;28;20062;-62
2021/01/05 05:19:04;;;;;;;8.93;5.40;;;;;;;1.96;58.15;101100.13;8066922;28;20583;-62
2021/01/05 05:23:21;;;;;;;7.80;5.22;;;;;;;1.96;58.03;101103.59;8068354;28;20046;-62
2021/01/05 05:27:30;;;;;;;7.22;5.00;;;;;;;1.95;57.95;101104.50;8068599;28;20152;-62
2021/01/05 05:31:26;;;;;;;8.32;5.47;;;;;;;1.90;58.11;101097.72;8064426;28;20055;-62
2021/01/05 05:35:35;;;;;;;11.85;5.72;;;;;;;1.94;58.36;101110.56;8038658;28;20064;-62
2021/01/05 05:39:47;;;;;;;9.50;5.78;;;;;;;1.96;58.46;101107.91;8036259;28;20138;-62
2021/01/05 05:43:58;;;;;;;8.70;5.13;;;;;;;1.99;58.19;101117.38;8035977;28;20051;-61
2021/01/05 05:48:30;;;;;;;8.30;5.80;;;;;;;1.99;58.09;101118.22;8034529;28;20040;-62
2021/01/05 05:52:37;;;;;;;8.85;5.93;;;;;;;2.01;57.97;101123.34;8035308;28;20098;-62
2021/01/05 05:56:44;;;;;;;9.05;5.35;;;;;;;1.99;57.69;101120.81;8041562;28;20043;-62
2021/01/05 06:00:40;;;;;;;8.40;5.47;;;;;;;1.99;58.02;101123.41;8040536;28;20040;-63
2021/01/05 06:04:36;;;;;;;11.05;6.35;;;;;;;2.01;57.99;101118.16;8041964;28;20033;-63
2021/01/05 06:08:27;;;;;;;9.05;6.00;;;;;;;2.01;57.71;101126.78;8041458;28;20028;-63
2021/01/05 06:12:19;;;;;;;10.50;6.07;;;;;;;2.05;58.21;101132.72;8068251;28;20044;-63
2021/01/05 06:16:09;;;;;;;9.05;5.93;;;;;;;2.04;58.28;101126.69;8072858;28;20394;-63
2021/01/05 06:20:00;;;;;;;9.68;6.25;;;;;;;2.05;58.54;101123.22;8073704;28;20493;-62
2021/01/05 06:23:51;;;;;;;10.10;6.30;;;;;;;2.07;58.29;101141.34;8074228;28;20085;-62
2021/01/05 06:27:42;;;;;;;10.15;6.05;;;;;;;2.06;58.21;101132.69;8073201;28;20024;-62
2021/01/05 06:31:32;;;;;;;9.35;5.95;;;;;;;2.07;58.08;101137.00;8064701;28;20065;-64
2021/01/05 06:35:23;;;;;;;9.98;6.03;;;;;;;2.07;57.94;101138.75;8072734;28;20135;-62
2021/01/05 06:39:14;;;;;;;10.82;5.97;;;;;;;2.07;57.62;101141.34;8072060;28;20486;-62
2021/01/05 06:43:05;;;;;;;11.07;6.30;;;;;;;2.06;57.91;101137.03;8100931;28;20048;-62
2021/01/05 06:46:56;;;;;;;10.77;5.68;;;;;;;2.06;57.75;101144.81;8103696;28;20031;-64
2021/01/05 06:50:47;;;;;;;9.70;6.05;;;;;;;2.06;58.50;101143.06;8105101;27;20036;-62
2021/01/05 06:54:37;;;;;;;10.55;6.15;;;;;;;2.05;57.99;101149.13;8105168;28;20392;-62
2021/01/05 06:58:28;;;;;;;9.85;6.10;;;;;;;2.05;58.26;101143.94;8104848;27;20506;-62
2021/01/05 07:02:19;;;;;;;11.18;6.93;;;;;;;2.06;57.87;101148.25;8076869;28;20482;-62
2021/01/05 07:06:09;;;;;;;9.18;5.95;;;;;;;2.05;57.71;101143.94;8072097;28;20052;-62
2021/01/05 07:10:00;;;;;;;10.02;6.30;;;;;;;2.02;58.15;101141.44;8072164;28;20249;-62
2021/01/05 07:13:51;;;;;;;9.68;5.22;;;;;;;2.01;57.98;101144.91;8071916;28;20040;-63
2021/01/05 07:17:41;;;;;;;12.75;5.85;;;;;;;1.89;57.95;101125.38;8070075;28;20032;-64
2021/01/05 07:21:32;;;;;;;10.70;6.03;;;;;;;2.02;57.82;101146.63;8072182;28;20487;-64
2021/01/05 07:25:23;;;;;;;10.07;5.75;;;;;;;2.02;58.10;101144.03;8071439;28;20043;-62
2021/01/05 07:29:15;;;;;;;9.85;5.85;;;;;;;2.05;58.00;101148.28;8071310;28;20036;-64
2021/01/05 07:33:06;;;;;;;9.45;6.20;;;;;;;2.05;58.43;101151.72;8060445;28;20036;-62
2021/01/05 07:37:01;;;;;;;12.52;6.18;;;;;;;2.05;57.80;101146.53;8071667;28;20324;-63
2021/01/05 07:40:52;;;;;;;12.23;6.55;;;;;;;2.05;58.26;101154.31;8080357;28;20032;-62
2021/01/05 07:44:45;;;;;;;13.00;7.10;;;;;;;2.08;58.39;101150.81;8081775;28;20054;-63
2021/01/05 07:48:35;;;;;;;10.40;5.97;;;;;;;2.09;58.04;101153.34;8024749;28;20033;-64
2021/01/05 07:52:34;;;;;;;10.52;6.55;;;;;;;2.12;58.08;101160.22;8029370;28;20087;-64
2021/01/05 07:56:24;;;;;;;;;;;;;;;2.06;58.01;101158.63;8029176;28;20071;-64
2021/01/05 08:00:27;;;;;;;9.35;5.45;;;;;;;2.08;57.99;101156.00;8025907;28;19916;-64
2021/01/05 08:04:17;;;;;;;12.00;6.40;;;;;;;2.11;57.75;101156.75;8029250;28;20039;-64
2021/01/05 08:08:08;;;;;;;15.02;6.40;;;;;;;2.13;58.24;101161.88;8028406;28;20037;-64
2021/01/05 08:11:59;;;;;;;12.40;6.72;;;;;;;2.13;58.50;101157.56;8028939;28;20090;-63
2021/01/05 08:15:49;;;;;;;9.73;5.95;;;;;;;2.15;57.88;101160.97;8023233;28;20038;-64
2021/01/05 08:19:45;;;;;;;10.38;6.70;;;;;;;2.18;57.88;101165.22;8023301;28;20037;-64
2021/01/05 08:23:36;;;;;;;10.13;5.75;;;;;;;2.20;58.07;101184.19;8023627;28;20123;-65
2021/01/05 08:27:26;;;;;;;11.75;6.68;;;;;;;2.22;57.79;101188.41;8024094;28;20132;-65
2021/01/05 08:31:18;;;;;;;11.57;6.25;;;;;;;2.23;58.42;101179.75;8025411;28;20056;-64
2021/01/05 08:35:10;;;;;;;9.75;6.22;;;;;;;2.27;58.01;101183.97;8029855;28;20067;-64
2021/01/05 08:39:01;;;;;;;9.25;6.00;;;;;;;2.27;58.08;101181.38;8029149;28;20043;-64
2021/01/05 08:42:51;;;;;;;13.80;6.38;;;;;;;2.30;58.45;101183.03;8031843;28;20197;-64
2021/01/05 08:46:43;;;;;;;10.52;6.13;;;;;;;2.30;57.80;101191.66;8027212;28;20048;-63
2021/01/05 08:50:33;;;;;;;10.88;6.57;;;;;;;2.32;58.12;101189.88;8029037;28;20507;-64
2021/01/05 08:54:24;;;;;;;9.60;5.53;;;;;;;2.30;57.98;101186.47;8029084;28;20473;-64
2021/01/05 08:58:15;;;;;;;13.75;6.72;;;;;;;2.33;58.50;101188.97;8030267;28;20605;-64
2021/01/05 09:02:08;;;;;;;9.63;6.05;;;;;;;2.34;58.28;101185.50;8029966;28;20048;-64
2021/01/05 09:05:58;;;;;;;10.60;6.63;;;;;;;2.36;58.42;101185.47;8030389;28;20036;-64
2021/01/05 09:09:51;;;;;;;10.38;6.28;;;;;;;2.39;57.95;101182.78;8030460;28;20043;-64
2021/01/05 09:13:42;;;;;;;12.10;6.60;;;;;;;2.41;58.03;101179.25;8028627;28;20040;-64
2021/01/05 09:17:33;;;;;;;14.35;7.53;;;;;;;2.42;58.22;101187.88;8030124;28;20041;-64
2021/01/05 09:21:26;;;;;;;11.68;6.40;;;;;;;2.42;57.98;101182.69;8029293;28;20070;-64
2021/01/05 09:25:17;;;;;;;12.30;6.93;;;;;;;2.42;58.13;101188.72;8029209;28;20090;-63
2021/01/05 09:29:08;;;;;;;12.23;6.03;;;;;;;2.41;58.05;101184.44;8033497;28;20037;-64
2021/01/05 09:32:59;;;;;;;12.68;7.38;;;;;;;2.40;57.63;101171.53;8037502;28;20181;-64
2021/01/05 09:36:51;;;;;;;13.48;6.93;;;;;;;2.41;57.84;101178.44;8036693;28;20029;-64
2021/01/05 09:40:42;;;;;;;13.07;5.97;;;;;;;2.44;58.06;101188.69;8037158;28;20044;-64
2021/01/05 09:44:32;;;;;;;10.98;6.75;;;;;;;2.46;58.00;101192.09;8033335;28;20041;-64
2021/01/05 09:48:23;;;;;;;9.80;6.13;;;;;;;2.48;58.12;101198.09;8035351;28;20504;-64
2021/01/05 09:52:14;;;;;;;11.95;7.40;;;;;;;2.48;57.96;101195.50;8033375;28;20035;-64
2021/01/05 09:56:05;;;;;;;13.60;7.35;;;;;;;2.48;57.62;101195.50;8035392;28;20614;-65
2021/01/05 09:59:55;;;;;;;10.85;6.88;;;;;;;2.47;58.13;101190.34;8032953;28;20063;-65
2021/01/05 10:03:46;;;;;;;11.60;7.07;;;;;;;2.46;58.17;101186.91;8032593;28;20040;-65
2021/01/05 10:07:36;;;;;;;10.82;6.55;;;;;;;2.47;57.81;101193.78;8034380;28;20032;-65
2021/01/05 10:11:31;;;;;;;13.00;7.47;;;;;;;2.46;58.18;101186.03;8034926;28;20786;-65
2021/01/05 10:15:25;;;;;;;13.82;7.10;;;;;;;2.43;57.85;101185.25;8034740;28;20111;-65
2021/01/05 10:19:16;;;;;;;16.17;8.05;;;;;;;2.42;58.05;101185.28;8037149;28;20098;-65
2021/01/05 10:23:07;;;;;;;9.80;6.22;;;;;;;2.44;57.97;101188.69;8034510;28;20068;-64
2021/01/05 10:26:57;;;;;;;15.93;7.32;;;;;;;2.47;58.04;101188.59;8031553;28;20036;-62
2021/01/05 10:30:48;;;;;;;11.15;6.93;;;;;;;2.50;57.94;101192.84;8032740;28;20451;-65
2021/01/05 10:34:38;;;;;;;15.50;7.93;;;;;;;2.51;57.82;101185.03;8034615;28;20644;-65
2021/01/05 10:38:29;;;;;;;13.57;7.75;;;;;;;2.51;58.31;101187.63;8034152;28;20035;-65
2021/01/05 10:42:20;;;;;;;11.50;7.53;;;;;;;2.51;58.07;101191.97;8033619;28;20045;-65
2021/01/05 10:46:11;;;;;;;13.60;7.90;;;;;;;2.51;57.91;101190.22;8028609;28;20051;-65
2021/01/05 10:50:03;;;;;;;15.32;8.43;;;;;;;2.52;58.14;101193.66;8031722;28;20382;-64
2021/01/05 10:53:56;;;;;;;14.48;8.05;;;;;;;2.53;58.20;101190.19;8033131;28;20044;-65
2021/01/05 10:57:48;;;;;;;14.95;8.18;;;;;;;2.55;57.94;101193.56;8032021;28;20154;-65
2021/01/05 11:01:39;;;;;;;17.88;9.23;;;;;;;2.56;58.27;101182.31;8032306;28;20051;-65
2021/01/05 11:05:29;;;;;;;19.13;9.43;;;;;;;2.56;57.99;101180.59;8034121;28;20036;-65
2021/01/05 11:09:21;;;;;;;18.45;10.18;;;;;;;2.52;57.97;101176.38;8029448;28;20029;-65
2021/01/05 11:13:12;;;;;;;16.17;9.32;;;;;;;2.56;57.77;101180.59;8030604;28;20032;-65
2021/01/05 11:17:02;;;;;;;18.55;9.63;;;;;;;2.54;58.38;101165.94;8025299;28;20396;-64
2021/01/05 11:20:53;;;;;;;15.35;9.45;;;;;;;2.61;58.30;101170.94;8032575;28;20041;-65
2021/01/05 11:24:45;;;;;;;19.23;10.05;;;;;;;2.61;58.45;101170.94;8034426;28;20040;-65
2021/01/05 11:28:36;;;;;;;17.45;9.15;;;;;;;2.63;58.46;101163.09;8027349;28;20037;-64
2021/01/05 11:32:26;;;;;;;14.75;8.18;;;;;;;2.66;58.42;101163.84;8032158;28;20044;-65
2021/01/05 11:36:25;;;;;;;17.63;9.18;;;;;;;2.70;58.07;101154.25;8043892;28;20036;-65
2021/01/05 11:40:17;;;;;;;17.23;9.30;;;;;;;2.74;58.26;101143.72;8034702;28;20032;-65
2021/01/05 11:44:07;;;;;;;15.45;9.13;;;;;;;2.74;58.60;101146.31;8033784;28;20043;-65
2021/01/05 11:47:58;;;;;;;17.30;9.35;;;;;;;2.75;58.04;101148.03;8028088;28;20064;-65
2021/01/05 11:51:51;;;;;;;17.17;9.68;;;;;;;2.74;57.92;101133.34;8029687;28;20041;-66
2021/01/05 11:55:41;;;;;;;17.42;9.90;;;;;;;2.73;58.14;101146.38;8028955;28;20032;-65
2021/01/05 11:59:32;;;;;;;18.25;8.68;;;;;;;2.73;58.06;101146.38;8027294;28;20039;-65
2021/01/05 12:03:22;;;;;;;16.88;9.27;;;;;;;2.73;58.46;101141.19;8032873;28;20044;-64
2021/01/05 12:07:14;;;;;;;15.00;9.07;;;;;;;2.75;57.80;101137.66;8029530;28;20048;-65
2021/01/05 12:11:05;;;;;;;17.08;9.45;;;;;;;2.73;57.90;101133.41;8031460;28;20032;-64
2021/01/05 12:14:55;;;;;;;16.05;9.02;;;;;;;2.71;57.84;101140.38;8028794;28;20110;-65
2021/01/05 12:18:46;;;;;;;17.08;9.55;;;;;;;2.74;57.86;101145.50;8027048;28;20054;-65
2021/01/05 12:22:37;;;;;;;17.48;8.65;;;;;;;2.71;57.67;101141.22;8029528;28;21082;-65
2021/01/05 12:26:32;;;;;;;17.38;9.48;;;;;;;2.71;57.86;101143.81;8031187;28;20032;-65
2021/01/05 12:30:24;;;;;;;18.45;9.40;;;;;;;2.71;57.82;101141.22;8027208;28;20032;-65
2021/01/05 12:34:17;;;;;;;22.33;11.45;;;;;;;2.69;57.65;101132.66;8030043;28;20039;-70
2021/01/05 12:38:08;;;;;;;19.85;11.00;;;;;;;2.68;57.80;101135.28;8031741;28;20037;-65
2021/01/05 12:42:00;;;;;;;18.92;10.55;;;;;;;2.66;57.57;101132.72;8030967;28;20036;-65
2021/01/05 12:45:52;;;;;;;21.83;10.63;;;;;;;2.65;57.68;101122.41;8032333;28;20455;-65
2021/01/05 12:49:42;;;;;;;19.80;10.98;;;;;;;2.66;58.10;101124.94;8034780;28;20552;-65
2021/01/05 12:53:33;;;;;;;18.77;10.02;;;;;;;2.68;58.09;101130.94;8031274;28;20029;-65
2021/01/05 12:57:23;;;;;;;21.45;11.45;;;;;;;2.70;58.02;101117.94;8031454;28;20035;-65
2021/01/05 13:01:16;;;;;;;21.23;11.35;;;;;;;2.74;57.90;101124.75;8030896;28;20580;-65
2021/01/05 13:05:07;;;;;;;22.02;11.63;;;;;;;2.74;58.27;101122.16;8030296;28;20056;-65
2021/01/05 13:08:57;;;;;;;20.67;10.75;;;;;;;2.72;57.75;101122.19;8028576;28;20040;-65
2021/01/05 13:12:49;;;;;;;21.25;10.35;;;;;;;2.72;57.87;101122.19;8031710;28;20396;-63
2021/01/05 13:16:40;;;;;;;21.83;10.88;;;;;;;2.72;58.07;101118.72;8028390;28;20086;-65
2021/01/05 13:20:30;;;;;;;20.48;11.63;;;;;;;2.71;57.90;101124.81;8028307;28;20511;-65
2021/01/05 13:24:27;;;;;;;25.30;12.23;;;;;;;2.68;58.28;101135.28;8026515;28;20037;-65
2021/01/05 13:28:17;;;;;;;20.67;11.90;;;;;;;2.66;58.20;101131.91;8026914;28;20404;-65
2021/01/05 13:32:18;;;;;;;22.67;11.07;;;;;;;2.64;57.78;101136.25;8029913;28;20052;-64
2021/01/05 13:36:09;;;;;;;17.95;10.68;;;;;;;2.61;58.13;101132.03;8033325;28;20040;-64
2021/01/05 13:39:59;;;;;;;20.33;10.95;;;;;;;2.62;57.94;101138.06;8025155;28;20122;-64
2021/01/05 13:43:50;;;;;;;23.23;11.68;;;;;;;2.61;58.15;101136.38;8028876;28;20040;-64
2021/01/05 13:47:41;;;;;;;20.75;11.02;;;;;;;2.58;58.26;101133.88;8023331;28;20090;-65
2021/01/05 13:51:38;;;;;;;22.88;11.98;;;;;;;2.56;58.10;101139.09;8023834;28;20046;-65
2021/01/05 13:55:28;;;;;;;25.08;12.63;;;;;;;2.55;58.50;101134.78;8024888;28;20066;-65
2021/01/05 13:59:19;;;;;;;23.17;12.23;;;;;;;2.55;58.35;101137.38;8024192;28;20047;-65
2021/01/05 14:03:10;;;;;;;23.30;12.50;;;;;;;2.56;57.89;101135.63;8019877;28;20037;-65
2021/01/05 14:07:04;;;;;;;22.88;11.82;;;;;;;2.55;58.00;101137.38;8023282;28;20035;-64
2021/01/05 14:10:55;;;;;;;20.40;12.20;;;;;;;2.54;57.66;101137.41;8026505;28;20037;-65
2021/01/05 14:14:45;;;;;;;23.83;11.70;;;;;;;2.52;58.26;101126.25;8028097;28;20094;-64
2021/01/05 14:18:36;;;;;;;22.38;11.43;;;;;;;2.49;58.09;101129.78;8028361;28;20489;-65
2021/01/05 14:22:30;;;;;;;20.13;11.63;;;;;;;2.48;58.48;101135.84;8031268;28;20150;-65
2021/01/05 14:26:21;;;;;;;26.65;12.52;;;;;;;2.49;58.09;101139.31;8033688;28;20051;-65
2021/01/05 14:30:12;;;;;;;20.60;10.50;;;;;;;2.46;58.42;101140.22;8031981;28;20121;-66
2021/01/05 14:34:03;;;;;;;24.23;11.32;;;;;;;2.46;58.10;101142.81;8029988;28;20117;-65
2021/01/05 14:37:53;;;;;;;22.80;12.02;;;;;;;2.45;58.46;101150.66;8031049;28;20613;-65
2021/01/05 14:41:49;;;;;;;26.92;11.85;;;;;;;2.42;58.18;101155.03;8031814;28;20051;-63
2021/01/05 14:45:40;;;;;;;23.30;11.52;;;;;;;2.41;58.53;101150.72;8030118;28;20056;-63
2021/01/05 14:49:32;;;;;;;18.90;10.93;;;;;;;2.40;58.58;101151.63;8027160;28;20575;-63
2021/01/05 14:53:24;;;;;;;20.25;11.05;;;;;;;2.41;57.91;101157.69;8029348;28;20060;-63
2021/01/05 14:57:15;;;;;;;17.48;10.05;;;;;;;2.35;58.02;101163.88;8030935;28;20040;-63
2021/01/05 15:01:07;;;;;;;20.75;10.40;;;;;;;2.32;57.87;101165.72;8027518;28;20538;-63
2021/01/05 15:04:57;;;;;;;16.20;9.25;;;;;;;2.27;58.23;101165.81;8032060;28;20035;-63
2021/01/05 15:08:48;;;;;;;18.17;9.60;;;;;;;2.25;58.21;101161.56;8028684;28;20039;-63
2021/01/05 15:12:39;;;;;;;14.82;8.63;;;;;;;2.22;58.19;101166.84;8033731;28;20036;-63
2021/01/05 15:16:29;;;;;;;17.10;8.68;;;;;;;2.19;57.65;101160.00;8041703;28;20149;-64
2021/01/05 15:20:20;;;;;;;15.18;8.70;;;;;;;2.16;58.10;101169.59;8029876;28;20059;-63
2021/01/05 15:24:12;;;;;;;16.10;8.10;;;;;;;2.12;57.88;101173.16;8025891;28;20060;-64
2021/01/05 15:28:02;;;;;;;18.00;9.48;;;;;;;2.10;57.71;101169.75;8028347;28;20044;-64
2021/01/05 15:31:55;;;;;;;16.25;9.52;;;;;;;2.06;57.64;101163.81;8029828;28;20731;-63
2021/01/05 15:35:46;;;;;;;15.55;8.40;;;;;;;2.05;57.99;101164.69;8027927;28;20046;-64
2021/01/05 15:39:36;;;;;;;16.63;8.43;;;;;;;2.04;58.17;101170.75;8027720;28;20039;-64
2021/01/05 15:43:27;;;;;;;11.98;6.55;;;;;;;2.04;57.54;101169.94;8031656;28;20043;-63
2021/01/05 15:47:17;;;;;;;13.85;8.07;;;;;;;2.04;58.09;101164.75;8029401;28;20048;-64
2021/01/05 15:51:08;;;;;;;14.02;6.95;;;;;;;2.03;58.08;101161.31;8028542;28;20047;-63
2021/01/05 15:54:59;;;;;;;13.07;6.78;;;;;;;2.03;58.45;101160.44;8030403;28;20042;-63
2021/01/05 15:58:51;;;;;;;14.60;7.70;;;;;;;2.03;57.62;101168.22;8030098;28;20609;-63
2021/01/05 16:02:46;;;;;;;14.30;7.13;;;;;;;2.04;58.16;101151.78;8027367;28;20084;-63
2021/01/05 16:06:42;;;;;;;10.88;6.88;;;;;;;2.06;58.38;101160.34;8028127;28;20135;-62
2021/01/05 16:10:33;;;;;;;12.02;6.65;;;;;;;2.05;58.50;101162.09;8032635;28;20446;-63
2021/01/05 16:14:23;;;;;;;12.43;6.60;;;;;;;2.08;58.08;101161.19;8031855;28;21475;-62
2021/01/05 16:18:14;;;;;;;12.35;6.82;;;;;;;2.08;58.27;101174.13;8026385;28;20041;-63
2021/01/05 16:22:05;;;;;;;14.50;7.15;;;;;;;2.06;58.51;101165.53;8027019;28;20044;-63
2021/01/05 16:25:55;;;;;;;11.98;7.03;;;;;;;2.05;58.31;101169.88;8026650;28;20100;-63
2021/01/05 16:29:47;;;;;;;12.38;7.07;;;;;;;2.03;57.92;101160.44;8025051;28;20164;-61
2021/01/05 16:33:38;;;;;;;11.90;6.68;;;;;;;2.00;58.73;101168.31;8027649;28;20045;-63
2021/01/05 16:37:29;;;;;;;12.20;7.53;;;;;;;1.97;58.70;101164.88;8024135;28;20044;-63
2021/01/05 16:41:19;;;;;;;14.10;7.32;;;;;;;1.95;58.17;101173.59;8026996;28;20797;-62
2021/01/05 16:45:13;;;;;;;13.80;8.35;;;;;;;1.92;58.52;101169.31;8024291;28;20170;-63
2021/01/05 16:49:04;;;;;;;13.32;7.60;;;;;;;1.89;58.81;101171.16;8023503;28;20021;-63
2021/01/05 16:52:55;;;;;;;13.55;7.95;;;;;;;1.92;58.88;101174.50;8024842;28;20038;-62
2021/01/05 16:56:46;;;;;;;13.27;7.90;;;;;;;1.94;58.91;101167.56;8023838;28;20040;-63
2021/01/05 17:00:36;;;;;;;13.27;7.55;;;;;;;1.95;58.49;101174.47;8021746;28;20059;-63
2021/01/05 17:04:28;;;;;;;13.10;7.97;;;;;;;1.99;58.23;101176.97;8023577;28;20032;-61
2021/01/05 17:08:20;;;;;;;13.00;7.95;;;;;;;1.99;59.03;101170.03;8018954;28;20038;-62
2021/01/05 17:12:11;;;;;;;15.13;7.53;;;;;;;2.01;59.08;101167.38;8023687;28;20093;-63
2021/01/05 17:16:02;;;;;;;13.93;7.38;;;;;;;2.02;58.66;101163.91;8021187;28;20040;-63
2021/01/05 17:19:53;;;;;;;13.55;7.60;;;;;;;2.04;58.89;101164.75;8022832;28;20064;-63
2021/01/05 17:23:43;;;;;;;12.20;7.63;;;;;;;2.05;58.43;101169.00;8024636;28;20036;-62
2021/01/05 17:27:34;;;;;;;16.38;8.45;;;;;;;2.08;58.75;101174.13;8024248;28;20059;-62
2021/01/05 17:31:25;;;;;;;18.85;9.52;;;;;;;2.10;58.95;101180.13;8022604;28;20055;-62
2021/01/05 17:35:20;;;;;;;14.98;8.30;;;;;;;2.09;59.05;101179.25;8022571;28;20659;-63
2021/01/05 17:39:11;;;;;;;13.20;7.78;;;;;;;2.08;58.75;101177.56;8019675;28;20039;-61
2021/01/05 17:43:03;;;;;;;18.73;9.55;;;;;;;2.11;58.68;101187.00;8023341;28;20044;-61
2021/01/05 17:46:54;;;;;;;12.77;8.07;;;;;;;2.12;58.63;101188.72;8020630;28;20139;-63
2021/01/05 17:50:45;;;;;;;14.80;8.73;;;;;;;2.13;58.95;101187.81;8025272;28;20032;-63
2021/01/05 17:54:37;;;;;;;15.82;8.70;;;;;;;2.14;59.02;101192.97;8028399;28;20036;-63
2021/01/05 17:58:28;;;;;;;16.85;9.10;;;;;;;2.15;59.41;101192.06;8027831;28;20044;-65
2021/01/05 18:02:22;;;;;;;14.15;7.35;;;;;;;2.11;59.06;101185.28;8026546;28;20116;-67
2021/01/05 18:06:13;;;;;;;13.95;7.97;;;;;;;2.19;59.15;101192.84;8027584;28;20045;-62
2021/01/05 18:10:05;;;;;;;17.17;8.95;;;;;;;2.21;58.97;101191.03;8026834;28;20044;-65
2021/01/05 18:13:56;;;;;;;15.43;8.15;;;;;;;2.22;59.21;101191.00;8028167;28;20028;-65
2021/01/05 18:17:46;;;;;;;13.93;8.38;;;;;;;2.22;59.20;101190.16;8028578;28;20048;-64
2021/01/05 18:21:39;;;;;;;13.65;8.15;;;;;;;2.23;59.48;101194.47;8028124;28;20039;-65